sensor_id;sensor_type;location;lat;lon;timestamp;P1;durP1;ratioP1;P2;durP2;ratioP2
18780;SDS011;9519;51.890;8.970;2023-04-09T00:04:40;63.60;;;36.13;;
18780;SDS011;9519;51.890;8.970;2023-04-09T00:09:42;63.33;;;36.57;;
18780;SDS011;9519;51.890;8.970;2023-04-09T00:14:46;67.40;;;39.33;;
18780;SDS011;9519;51.890;8.970;2023-04-09T00:19:48;68.27;;;38.93;;
18780;SDS011;9519;51.890;8.970;2023-04-09T00:24:50;72.47;;;40.73;;
18780;SDS011;9519;51.890;8.970;2023-04-09T00:29:53;70.70;;;39.30;;
18780;SDS011;9519;51.890;8.970;2023-04-09T00:34:55;64.67;;;35.93;;
18780;SDS011;9519;51.890;8.970;2023-04-09T00:39:57;63.10;;;35.80;;
18780;SDS011;9519;51.890;8.970;2023-04-09T00:45:01;59.07;;;34.80;;
18780;SDS011;9519;51.890;8.970;2023-04-09T00:50:06;61.77;;;35.87;;
18780;SDS011;9519;51.890;8.970;2023-04-09T00:55:09;61.63;;;35.47;;
18780;SDS011;9519;51.890;8.970;2023-04-09T01:00:14;69.03;;;37.87;;
18780;SDS011;9519;51.890;8.970;2023-04-09T01:05:16;69.03;;;37.00;;
18780;SDS011;9519;51.890;8.970;2023-04-09T01:10:20;73.30;;;39.93;;
18780;SDS011;9519;51.890;8.970;2023-04-09T01:15:32;80.10;;;40.40;;
18780;SDS011;9519;51.890;8.970;2023-04-09T01:20:41;75.87;;;39.80;;
18780;SDS011;9519;51.890;8.970;2023-04-09T01:25:52;75.67;;;38.27;;
18780;SDS011;9519;51.890;8.970;2023-04-09T01:31:08;73.27;;;39.87;;
18780;SDS011;9519;51.890;8.970;2023-04-09T01:36:15;73.93;;;38.73;;
18780;SDS011;9519;51.890;8.970;2023-04-09T01:41:19;72.37;;;39.03;;
18780;SDS011;9519;51.890;8.970;2023-04-09T01:46:24;65.33;;;37.63;;
18780;SDS011;9519;51.890;8.970;2023-04-09T01:51:26;66.93;;;38.53;;
18780;SDS011;9519;51.890;8.970;2023-04-09T01:56:38;61.83;;;35.80;;
18780;SDS011;9519;51.890;8.970;2023-04-09T02:01:44;76.97;;;40.43;;
18780;SDS011;9519;51.890;8.970;2023-04-09T02:06:52;90.63;;;42.63;;
18780;SDS011;9519;51.890;8.970;2023-04-09T02:12:03;82.33;;;42.50;;
18780;SDS011;9519;51.890;8.970;2023-04-09T02:17:12;67.93;;;38.40;;
18780;SDS011;9519;51.890;8.970;2023-04-09T02:22:14;75.63;;;39.97;;
18780;SDS011;9519;51.890;8.970;2023-04-09T02:27:17;90.10;;;47.70;;
18780;SDS011;9519;51.890;8.970;2023-04-09T02:32:20;136.97;;;49.00;;
18780;SDS011;9519;51.890;8.970;2023-04-09T02:37:22;97.83;;;44.93;;
18780;SDS011;9519;51.890;8.970;2023-04-09T02:42:24;138.73;;;48.07;;
18780;SDS011;9519;51.890;8.970;2023-04-09T02:47:28;83.47;;;41.17;;
18780;SDS011;9519;51.890;8.970;2023-04-09T02:52:30;89.67;;;41.67;;
18780;SDS011;9519;51.890;8.970;2023-04-09T02:57:32;102.53;;;42.97;;
18780;SDS011;9519;51.890;8.970;2023-04-09T03:02:36;73.90;;;40.47;;
18780;SDS011;9519;51.890;8.970;2023-04-09T03:07:39;83.37;;;40.20;;
18780;SDS011;9519;51.890;8.970;2023-04-09T03:12:41;66.40;;;40.83;;
18780;SDS011;9519;51.890;8.970;2023-04-09T03:17:44;79.60;;;40.77;;
18780;SDS011;9519;51.890;8.970;2023-04-09T03:22:46;77.37;;;40.30;;
18780;SDS011;9519;51.890;8.970;2023-04-09T03:27:48;66.67;;;37.40;;
18780;SDS011;9519;51.890;8.970;2023-04-09T03:32:52;59.20;;;38.43;;
18780;SDS011;9519;51.890;8.970;2023-04-09T03:37:56;108.17;;;40.80;;
18780;SDS011;9519;51.890;8.970;2023-04-09T03:42:58;124.67;;;39.97;;
18780;SDS011;9519;51.890;8.970;2023-04-09T03:48:01;80.13;;;39.67;;
18780;SDS011;9519;51.890;8.970;2023-04-09T03:53:04;110.60;;;38.77;;
18780;SDS011;9519;51.890;8.970;2023-04-09T03:58:06;119.20;;;41.73;;
18780;SDS011;9519;51.890;8.970;2023-04-09T04:03:09;112.17;;;39.10;;
18780;SDS011;9519;51.890;8.970;2023-04-09T04:08:13;133.40;;;40.07;;
18780;SDS011;9519;51.890;8.970;2023-04-09T04:13:15;66.17;;;35.83;;
18780;SDS011;9519;51.890;8.970;2023-04-09T04:18:18;200.60;;;46.47;;
18780;SDS011;9519;51.890;8.970;2023-04-09T04:23:20;116.90;;;42.07;;
18780;SDS011;9519;51.890;8.970;2023-04-09T04:28:22;76.03;;;38.20;;
18780;SDS011;9519;51.890;8.970;2023-04-09T04:33:26;128.67;;;41.90;;
18780;SDS011;9519;51.890;8.970;2023-04-09T04:38:28;84.50;;;42.30;;
18780;SDS011;9519;51.890;8.970;2023-04-09T04:43:30;89.43;;;40.00;;
18780;SDS011;9519;51.890;8.970;2023-04-09T04:48:34;148.67;;;49.80;;
18780;SDS011;9519;51.890;8.970;2023-04-09T04:53:36;61.53;;;35.07;;
18780;SDS011;9519;51.890;8.970;2023-04-09T04:58:38;62.37;;;35.80;;
18780;SDS011;9519;51.890;8.970;2023-04-09T05:03:41;81.47;;;35.90;;
18780;SDS011;9519;51.890;8.970;2023-04-09T05:08:43;103.80;;;35.47;;
18780;SDS011;9519;51.890;8.970;2023-04-09T05:13:47;73.70;;;35.63;;
18780;SDS011;9519;51.890;8.970;2023-04-09T05:18:51;157.50;;;38.67;;
18780;SDS011;9519;51.890;8.970;2023-04-09T05:23:53;102.33;;;36.77;;
18780;SDS011;9519;51.890;8.970;2023-04-09T05:28:55;104.40;;;36.30;;
18780;SDS011;9519;51.890;8.970;2023-04-09T05:33:58;84.23;;;36.07;;
18780;SDS011;9519;51.890;8.970;2023-04-09T05:39:00;77.67;;;32.87;;
18780;SDS011;9519;51.890;8.970;2023-04-09T05:44:02;143.60;;;43.13;;
18780;SDS011;9519;51.890;8.970;2023-04-09T05:49:06;167.70;;;44.93;;
18780;SDS011;9519;51.890;8.970;2023-04-09T05:54:08;104.37;;;39.10;;
18780;SDS011;9519;51.890;8.970;2023-04-09T05:59:10;148.83;;;40.50;;
18780;SDS011;9519;51.890;8.970;2023-04-09T06:04:13;62.87;;;35.07;;
18780;SDS011;9519;51.890;8.970;2023-04-09T06:09:15;68.13;;;34.57;;
18780;SDS011;9519;51.890;8.970;2023-04-09T06:14:17;63.23;;;37.23;;
18780;SDS011;9519;51.890;8.970;2023-04-09T06:19:21;135.93;;;44.93;;
18780;SDS011;9519;51.890;8.970;2023-04-09T06:24:23;71.07;;;37.97;;
18780;SDS011;9519;51.890;8.970;2023-04-09T06:29:25;64.80;;;35.73;;
18780;SDS011;9519;51.890;8.970;2023-04-09T06:34:29;99.53;;;36.90;;
18780;SDS011;9519;51.890;8.970;2023-04-09T06:39:31;57.27;;;31.93;;
18780;SDS011;9519;51.890;8.970;2023-04-09T06:44:33;143.67;;;40.23;;
18780;SDS011;9519;51.890;8.970;2023-04-09T06:49:36;86.10;;;34.23;;
18780;SDS011;9519;51.890;8.970;2023-04-09T06:54:38;68.93;;;34.97;;
18780;SDS011;9519;51.890;8.970;2023-04-09T06:59:41;90.07;;;36.40;;
18780;SDS011;9519;51.890;8.970;2023-04-09T07:04:46;49.17;;;33.40;;
18780;SDS011;9519;51.890;8.970;2023-04-09T07:09:48;60.73;;;36.27;;
18780;SDS011;9519;51.890;8.970;2023-04-09T07:14:50;89.80;;;40.17;;
18780;SDS011;9519;51.890;8.970;2023-04-09T07:19:54;93.00;;;40.93;;
18780;SDS011;9519;51.890;8.970;2023-04-09T07:24:56;91.70;;;38.23;;
18780;SDS011;9519;51.890;8.970;2023-04-09T07:29:58;82.70;;;37.97;;
18780;SDS011;9519;51.890;8.970;2023-04-09T07:35:02;66.03;;;35.60;;
18780;SDS011;9519;51.890;8.970;2023-04-09T07:40:05;70.20;;;41.37;;
18780;SDS011;9519;51.890;8.970;2023-04-09T07:45:08;58.10;;;38.80;;
18780;SDS011;9519;51.890;8.970;2023-04-09T07:50:13;52.53;;;37.47;;
18780;SDS011;9519;51.890;8.970;2023-04-09T07:55:16;60.93;;;41.37;;
18780;SDS011;9519;51.890;8.970;2023-04-09T08:00:19;47.53;;;35.03;;
18780;SDS011;9519;51.890;8.970;2023-04-09T08:05:22;48.33;;;32.97;;
18780;SDS011;9519;51.890;8.970;2023-04-09T08:10:25;47.87;;;32.83;;
18780;SDS011;9519;51.890;8.970;2023-04-09T08:15:27;43.97;;;32.67;;
18780;SDS011;9519;51.890;8.970;2023-04-09T08:20:30;51.67;;;35.57;;
18780;SDS011;9519;51.890;8.970;2023-04-09T08:25:32;53.43;;;36.47;;
18780;SDS011;9519;51.890;8.970;2023-04-09T08:30:36;53.43;;;37.60;;
18780;SDS011;9519;51.890;8.970;2023-04-09T08:35:40;50.67;;;34.70;;
18780;SDS011;9519;51.890;8.970;2023-04-09T08:40:42;48.77;;;34.37;;
18780;SDS011;9519;51.890;8.970;2023-04-09T08:45:44;48.10;;;31.90;;
18780;SDS011;9519;51.890;8.970;2023-04-09T08:50:48;51.47;;;34.10;;
18780;SDS011;9519;51.890;8.970;2023-04-09T08:55:50;53.27;;;32.90;;
18780;SDS011;9519;51.890;8.970;2023-04-09T09:00:52;64.30;;;36.63;;
18780;SDS011;9519;51.890;8.970;2023-04-09T09:05:56;35.53;;;24.33;;
18780;SDS011;9519;51.890;8.970;2023-04-09T09:10:58;38.17;;;23.70;;
18780;SDS011;9519;51.890;8.970;2023-04-09T09:16:10;28.43;;;19.10;;
18780;SDS011;9519;51.890;8.970;2023-04-09T09:21:16;27.50;;;19.50;;
18780;SDS011;9519;51.890;8.970;2023-04-09T09:26:20;31.23;;;19.23;;
18780;SDS011;9519;51.890;8.970;2023-04-09T09:31:25;30.80;;;19.83;;
18780;SDS011;9519;51.890;8.970;2023-04-09T09:36:31;32.73;;;21.63;;
18780;SDS011;9519;51.890;8.970;2023-04-09T09:41:35;30.30;;;20.50;;
18780;SDS011;9519;51.890;8.970;2023-04-09T09:46:38;26.37;;;19.33;;
18780;SDS011;9519;51.890;8.970;2023-04-09T09:51:42;27.20;;;19.77;;
18780;SDS011;9519;51.890;8.970;2023-04-09T09:56:45;25.00;;;17.60;;
18780;SDS011;9519;51.890;8.970;2023-04-09T10:01:54;24.03;;;16.67;;
18780;SDS011;9519;51.890;8.970;2023-04-09T10:07:03;24.80;;;17.47;;
18780;SDS011;9519;51.890;8.970;2023-04-09T10:12:07;21.23;;;14.63;;
18780;SDS011;9519;51.890;8.970;2023-04-09T10:17:11;24.83;;;17.27;;
18780;SDS011;9519;51.890;8.970;2023-04-09T10:22:16;21.50;;;16.97;;
18780;SDS011;9519;51.890;8.970;2023-04-09T10:27:23;24.57;;;15.73;;
18780;SDS011;9519;51.890;8.970;2023-04-09T10:32:27;23.73;;;16.37;;
18780;SDS011;9519;51.890;8.970;2023-04-09T10:37:37;23.20;;;16.43;;
18780;SDS011;9519;51.890;8.970;2023-04-09T10:42:48;32.60;;;18.60;;
18780;SDS011;9519;51.890;8.970;2023-04-09T10:47:52;24.80;;;17.40;;
18780;SDS011;9519;51.890;8.970;2023-04-09T10:52:56;24.73;;;17.27;;
18780;SDS011;9519;51.890;8.970;2023-04-09T10:57:59;24.03;;;16.20;;
18780;SDS011;9519;51.890;8.970;2023-04-09T11:03:05;24.70;;;15.63;;
18780;SDS011;9519;51.890;8.970;2023-04-09T11:08:26;21.90;;;15.97;;
18780;SDS011;9519;51.890;8.970;2023-04-09T11:13:30;19.77;;;14.53;;
18780;SDS011;9519;51.890;8.970;2023-04-09T11:18:33;27.10;;;17.10;;
18780;SDS011;9519;51.890;8.970;2023-04-09T11:23:51;35.87;;;20.07;;
18780;SDS011;9519;51.890;8.970;2023-04-09T11:28:54;22.73;;;16.73;;
18780;SDS011;9519;51.890;8.970;2023-04-09T11:33:58;21.23;;;15.10;;
18780;SDS011;9519;51.890;8.970;2023-04-09T11:39:02;22.23;;;16.90;;
18780;SDS011;9519;51.890;8.970;2023-04-09T11:44:06;22.60;;;16.77;;
18780;SDS011;9519;51.890;8.970;2023-04-09T11:49:08;20.73;;;15.50;;
18780;SDS011;9519;51.890;8.970;2023-04-09T11:54:14;19.53;;;14.53;;
18780;SDS011;9519;51.890;8.970;2023-04-09T11:59:16;20.40;;;14.43;;
18780;SDS011;9519;51.890;8.970;2023-04-09T12:04:18;20.30;;;14.67;;
18780;SDS011;9519;51.890;8.970;2023-04-09T12:09:22;19.40;;;13.57;;
18780;SDS011;9519;51.890;8.970;2023-04-09T12:14:24;18.10;;;13.20;;
18780;SDS011;9519;51.890;8.970;2023-04-09T12:19:28;18.73;;;14.30;;
18780;SDS011;9519;51.890;8.970;2023-04-09T12:24:32;20.17;;;14.00;;
18780;SDS011;9519;51.890;8.970;2023-04-09T12:29:34;17.77;;;13.03;;
18780;SDS011;9519;51.890;8.970;2023-04-09T12:34:36;18.63;;;13.30;;
18780;SDS011;9519;51.890;8.970;2023-04-09T12:39:39;16.93;;;12.47;;
18780;SDS011;9519;51.890;8.970;2023-04-09T12:44:41;17.63;;;13.03;;
18780;SDS011;9519;51.890;8.970;2023-04-09T12:49:43;17.83;;;12.03;;
18780;SDS011;9519;51.890;8.970;2023-04-09T12:54:47;16.13;;;11.70;;
18780;SDS011;9519;51.890;8.970;2023-04-09T12:59:49;17.33;;;12.60;;
18780;SDS011;9519;51.890;8.970;2023-04-09T13:04:51;16.50;;;11.87;;
18780;SDS011;9519;51.890;8.970;2023-04-09T13:09:54;15.47;;;10.60;;
18780;SDS011;9519;51.890;8.970;2023-04-09T13:14:57;14.80;;;10.73;;
18780;SDS011;9519;51.890;8.970;2023-04-09T13:19:59;14.03;;;10.60;;
18780;SDS011;9519;51.890;8.970;2023-04-09T13:25:03;14.33;;;10.27;;
18780;SDS011;9519;51.890;8.970;2023-04-09T13:30:06;15.37;;;10.90;;
18780;SDS011;9519;51.890;8.970;2023-04-09T13:35:09;14.83;;;11.03;;
18780;SDS011;9519;51.890;8.970;2023-04-09T13:40:12;15.47;;;11.23;;
18780;SDS011;9519;51.890;8.970;2023-04-09T13:45:15;14.73;;;11.13;;
18780;SDS011;9519;51.890;8.970;2023-04-09T13:50:19;16.10;;;11.33;;
18780;SDS011;9519;51.890;8.970;2023-04-09T13:55:23;16.13;;;12.07;;
18780;SDS011;9519;51.890;8.970;2023-04-09T14:00:25;15.33;;;11.87;;
18780;SDS011;9519;51.890;8.970;2023-04-09T14:05:27;17.70;;;12.07;;
18780;SDS011;9519;51.890;8.970;2023-04-09T14:10:30;16.77;;;11.80;;
18780;SDS011;9519;51.890;8.970;2023-04-09T14:15:32;16.90;;;11.67;;
18780;SDS011;9519;51.890;8.970;2023-04-09T14:20:34;17.50;;;12.17;;
18780;SDS011;9519;51.890;8.970;2023-04-09T14:25:38;17.23;;;12.20;;
18780;SDS011;9519;51.890;8.970;2023-04-09T14:30:40;20.50;;;14.70;;
18780;SDS011;9519;51.890;8.970;2023-04-09T14:35:42;19.03;;;13.20;;
18780;SDS011;9519;51.890;8.970;2023-04-09T14:40:46;17.97;;;12.47;;
18780;SDS011;9519;51.890;8.970;2023-04-09T14:45:48;17.63;;;12.20;;
18780;SDS011;9519;51.890;8.970;2023-04-09T14:50:50;18.73;;;13.43;;
18780;SDS011;9519;51.890;8.970;2023-04-09T14:55:54;27.17;;;15.83;;
18780;SDS011;9519;51.890;8.970;2023-04-09T15:00:56;19.73;;;13.37;;
18780;SDS011;9519;51.890;8.970;2023-04-09T15:05:58;20.90;;;13.83;;
18780;SDS011;9519;51.890;8.970;2023-04-09T15:11:01;15.50;;;11.50;;
18780;SDS011;9519;51.890;8.970;2023-04-09T15:16:05;16.00;;;11.70;;
18780;SDS011;9519;51.890;8.970;2023-04-09T15:21:07;16.37;;;12.10;;
18780;SDS011;9519;51.890;8.970;2023-04-09T15:26:11;17.63;;;12.07;;
18780;SDS011;9519;51.890;8.970;2023-04-09T15:31:13;17.73;;;12.33;;
18780;SDS011;9519;51.890;8.970;2023-04-09T15:36:15;18.70;;;12.50;;
18780;SDS011;9519;51.890;8.970;2023-04-09T15:41:18;21.70;;;13.47;;
18780;SDS011;9519;51.890;8.970;2023-04-09T15:46:22;24.97;;;14.80;;
18780;SDS011;9519;51.890;8.970;2023-04-09T15:51:25;27.10;;;15.07;;
18780;SDS011;9519;51.890;8.970;2023-04-09T15:56:28;24.13;;;14.70;;
18780;SDS011;9519;51.890;8.970;2023-04-09T16:01:31;16.43;;;11.33;;
18780;SDS011;9519;51.890;8.970;2023-04-09T16:06:33;16.77;;;11.60;;
18780;SDS011;9519;51.890;8.970;2023-04-09T16:11:37;18.57;;;11.83;;
18780;SDS011;9519;51.890;8.970;2023-04-09T16:16:39;16.83;;;12.03;;
18780;SDS011;9519;51.890;8.970;2023-04-09T16:21:45;17.80;;;12.17;;
18780;SDS011;9519;51.890;8.970;2023-04-09T16:26:49;15.90;;;10.90;;
18780;SDS011;9519;51.890;8.970;2023-04-09T16:31:51;18.47;;;12.83;;
18780;SDS011;9519;51.890;8.970;2023-04-09T16:36:54;14.60;;;10.67;;
18780;SDS011;9519;51.890;8.970;2023-04-09T16:41:57;15.73;;;11.50;;
18780;SDS011;9519;51.890;8.970;2023-04-09T16:47:00;14.70;;;11.47;;
18780;SDS011;9519;51.890;8.970;2023-04-09T16:52:02;14.13;;;10.63;;
18780;SDS011;9519;51.890;8.970;2023-04-09T16:57:06;16.27;;;10.97;;
18780;SDS011;9519;51.890;8.970;2023-04-09T17:02:08;14.33;;;10.73;;
18780;SDS011;9519;51.890;8.970;2023-04-09T17:07:10;15.40;;;11.43;;
18780;SDS011;9519;51.890;8.970;2023-04-09T17:12:13;14.20;;;11.00;;
18780;SDS011;9519;51.890;8.970;2023-04-09T17:17:19;14.77;;;11.07;;
18780;SDS011;9519;51.890;8.970;2023-04-09T17:22:21;16.77;;;11.17;;
18780;SDS011;9519;51.890;8.970;2023-04-09T17:27:24;14.70;;;10.33;;
18780;SDS011;9519;51.890;8.970;2023-04-09T17:32:27;15.27;;;12.00;;
18780;SDS011;9519;51.890;8.970;2023-04-09T17:37:29;17.00;;;11.97;;
18780;SDS011;9519;51.890;8.970;2023-04-09T17:42:33;15.77;;;11.80;;
18780;SDS011;9519;51.890;8.970;2023-04-09T17:47:35;15.97;;;12.13;;
18780;SDS011;9519;51.890;8.970;2023-04-09T17:52:38;16.17;;;11.03;;
18780;SDS011;9519;51.890;8.970;2023-04-09T17:57:41;15.30;;;10.87;;
18780;SDS011;9519;51.890;8.970;2023-04-09T18:02:43;16.20;;;12.23;;
18780;SDS011;9519;51.890;8.970;2023-04-09T18:07:45;16.20;;;11.17;;
18780;SDS011;9519;51.890;8.970;2023-04-09T18:12:49;16.33;;;11.63;;
18780;SDS011;9519;51.890;8.970;2023-04-09T18:17:51;17.97;;;12.77;;
18780;SDS011;9519;51.890;8.970;2023-04-09T18:22:53;18.50;;;12.57;;
18780;SDS011;9519;51.890;8.970;2023-04-09T18:27:57;20.70;;;13.23;;
18780;SDS011;9519;51.890;8.970;2023-04-09T18:32:59;19.00;;;13.10;;
18780;SDS011;9519;51.890;8.970;2023-04-09T18:38:01;17.83;;;12.73;;
18780;SDS011;9519;51.890;8.970;2023-04-09T18:43:04;18.33;;;14.20;;
18780;SDS011;9519;51.890;8.970;2023-04-09T18:48:06;21.27;;;14.13;;
18780;SDS011;9519;51.890;8.970;2023-04-09T18:53:08;21.27;;;14.50;;
18780;SDS011;9519;51.890;8.970;2023-04-09T18:58:12;22.23;;;14.43;;
18780;SDS011;9519;51.890;8.970;2023-04-09T19:03:15;22.47;;;15.57;;
18780;SDS011;9519;51.890;8.970;2023-04-09T19:08:18;21.20;;;16.13;;
18780;SDS011;9519;51.890;8.970;2023-04-09T19:13:21;20.57;;;15.53;;
18780;SDS011;9519;51.890;8.970;2023-04-09T19:18:23;21.93;;;16.37;;
18780;SDS011;9519;51.890;8.970;2023-04-09T19:23:25;22.43;;;15.80;;
18780;SDS011;9519;51.890;8.970;2023-04-09T19:28:30;25.67;;;17.50;;
18780;SDS011;9519;51.890;8.970;2023-04-09T19:33:32;23.20;;;16.70;;
18780;SDS011;9519;51.890;8.970;2023-04-09T19:38:34;28.30;;;19.10;;
18780;SDS011;9519;51.890;8.970;2023-04-09T19:43:38;32.70;;;21.13;;
18780;SDS011;9519;51.890;8.970;2023-04-09T19:48:40;33.47;;;21.40;;
18780;SDS011;9519;51.890;8.970;2023-04-09T19:53:43;27.90;;;18.77;;
18780;SDS011;9519;51.890;8.970;2023-04-09T19:58:47;26.10;;;18.30;;
18780;SDS011;9519;51.890;8.970;2023-04-09T20:03:49;25.10;;;18.03;;
18780;SDS011;9519;51.890;8.970;2023-04-09T20:08:51;25.00;;;17.53;;
18780;SDS011;9519;51.890;8.970;2023-04-09T20:13:56;32.30;;;21.53;;
18780;SDS011;9519;51.890;8.970;2023-04-09T20:18:58;33.27;;;23.50;;
18780;SDS011;9519;51.890;8.970;2023-04-09T20:24:00;29.23;;;19.87;;
18780;SDS011;9519;51.890;8.970;2023-04-09T20:29:04;35.40;;;25.27;;
18780;SDS011;9519;51.890;8.970;2023-04-09T20:34:06;29.40;;;18.47;;
18780;SDS011;9519;51.890;8.970;2023-04-09T20:39:08;29.00;;;19.30;;
18780;SDS011;9519;51.890;8.970;2023-04-09T20:44:12;28.50;;;20.47;;
18780;SDS011;9519;51.890;8.970;2023-04-09T20:49:15;129.47;;;74.43;;
18780;SDS011;9519;51.890;8.970;2023-04-09T20:54:17;49.63;;;31.73;;
18780;SDS011;9519;51.890;8.970;2023-04-09T20:59:22;34.63;;;23.37;;
18780;SDS011;9519;51.890;8.970;2023-04-09T21:04:25;28.43;;;18.83;;
18780;SDS011;9519;51.890;8.970;2023-04-09T21:09:27;31.20;;;20.37;;
18780;SDS011;9519;51.890;8.970;2023-04-09T21:14:31;28.40;;;20.10;;
18780;SDS011;9519;51.890;8.970;2023-04-09T21:19:33;41.27;;;25.60;;
18780;SDS011;9519;51.890;8.970;2023-04-09T21:24:35;59.03;;;36.17;;
18780;SDS011;9519;51.890;8.970;2023-04-09T21:29:39;40.73;;;24.30;;
18780;SDS011;9519;51.890;8.970;2023-04-09T21:34:41;34.37;;;21.63;;
18780;SDS011;9519;51.890;8.970;2023-04-09T21:39:43;28.53;;;19.30;;
18780;SDS011;9519;51.890;8.970;2023-04-09T21:44:48;28.97;;;19.30;;
18780;SDS011;9519;51.890;8.970;2023-04-09T21:49:50;34.97;;;20.80;;
18780;SDS011;9519;51.890;8.970;2023-04-09T21:54:53;29.30;;;18.00;;
18780;SDS011;9519;51.890;8.970;2023-04-09T21:59:57;27.87;;;18.93;;
18780;SDS011;9519;51.890;8.970;2023-04-09T22:04:59;30.50;;;19.77;;
18780;SDS011;9519;51.890;8.970;2023-04-09T22:10:01;30.07;;;18.93;;
18780;SDS011;9519;51.890;8.970;2023-04-09T22:15:05;27.63;;;18.07;;
18780;SDS011;9519;51.890;8.970;2023-04-09T22:20:08;31.03;;;20.00;;
18780;SDS011;9519;51.890;8.970;2023-04-09T22:25:11;27.23;;;18.63;;
18780;SDS011;9519;51.890;8.970;2023-04-09T22:30:14;33.23;;;19.60;;
18780;SDS011;9519;51.890;8.970;2023-04-09T22:35:16;28.90;;;18.73;;
18780;SDS011;9519;51.890;8.970;2023-04-09T22:40:18;30.93;;;19.03;;
18780;SDS011;9519;51.890;8.970;2023-04-09T22:45:21;30.97;;;18.73;;
18780;SDS011;9519;51.890;8.970;2023-04-09T22:50:26;28.43;;;19.23;;
18780;SDS011;9519;51.890;8.970;2023-04-09T22:55:29;31.27;;;19.63;;
18780;SDS011;9519;51.890;8.970;2023-04-09T23:00:32;30.50;;;20.53;;
18780;SDS011;9519;51.890;8.970;2023-04-09T23:05:34;34.37;;;21.03;;
18780;SDS011;9519;51.890;8.970;2023-04-09T23:10:36;34.43;;;21.03;;
18780;SDS011;9519;51.890;8.970;2023-04-09T23:15:40;34.70;;;22.70;;
18780;SDS011;9519;51.890;8.970;2023-04-09T23:20:42;35.33;;;21.73;;
18780;SDS011;9519;51.890;8.970;2023-04-09T23:25:44;33.70;;;21.33;;
18780;SDS011;9519;51.890;8.970;2023-04-09T23:30:47;33.47;;;21.93;;
18780;SDS011;9519;51.890;8.970;2023-04-09T23:35:50;37.63;;;24.67;;
18780;SDS011;9519;51.890;8.970;2023-04-09T23:40:52;40.10;;;25.47;;
18780;SDS011;9519;51.890;8.970;2023-04-09T23:45:55;38.23;;;25.57;;
18780;SDS011;9519;51.890;8.970;2023-04-09T23:50:57;36.80;;;25.60;;
18780;SDS011;9519;51.890;8.970;2023-04-09T23:55:59;34.83;;;24.07;;
